createdAt,value
2023-05-31T00:00:34.045Z,470.00
2023-05-31T00:01:34.079Z,470.00
2023-05-31T00:02:34.229Z,469.00
2023-05-31T00:03:34.221Z,470.00
2023-05-31T00:04:34.172Z,472.00
2023-05-31T00:05:34.181Z,476.00
2023-05-31T00:06:34.249Z,477.00
2023-05-31T00:07:34.215Z,476.00
2023-05-31T00:08:34.262Z,474.00
2023-05-31T00:09:34.276Z,474.00
2023-05-31T00:10:34.307Z,474.00
2023-05-31T00:11:34.311Z,475.00
2023-05-31T00:12:34.347Z,475.00
2023-05-31T00:13:34.403Z,475.00
2023-05-31T00:14:34.402Z,477.00
2023-05-31T00:15:34.401Z,477.00
2023-05-31T00:17:49.861Z,477.00
2023-05-31T00:18:35.508Z,478.00
2023-05-31T00:19:34.438Z,479.00
2023-05-31T00:20:34.516Z,478.00
2023-05-31T00:21:34.432Z,476.00
2023-05-31T00:22:34.417Z,476.00
2023-05-31T00:23:34.413Z,475.00
2023-05-31T00:24:34.399Z,474.00
2023-05-31T00:25:34.372Z,474.00
2023-05-31T00:26:34.401Z,474.00
2023-05-31T00:27:34.362Z,472.00
2023-05-31T00:28:34.426Z,472.00
2023-05-31T00:29:34.323Z,472.00
2023-05-31T00:30:34.447Z,472.00
2023-05-31T00:31:34.413Z,471.00
2023-05-31T00:32:34.340Z,471.00
2023-05-31T00:33:34.339Z,472.00
2023-05-31T00:34:34.294Z,472.00
2023-05-31T00:35:34.356Z,470.00
2023-05-31T00:36:34.370Z,470.00
2023-05-31T00:37:34.389Z,471.00
2023-05-31T00:38:34.441Z,470.00
2023-05-31T00:39:34.440Z,470.00
2023-05-31T00:40:34.503Z,469.00
2023-05-31T00:41:34.565Z,470.00
2023-05-31T00:42:34.586Z,471.00
2023-05-31T00:43:34.632Z,472.00
2023-05-31T00:44:34.648Z,472.00
2023-05-31T00:45:34.702Z,473.00
2023-05-31T00:46:34.698Z,473.00
2023-05-31T00:47:34.728Z,474.00
2023-05-31T00:48:34.796Z,473.00
2023-05-31T00:49:34.761Z,472.00
2023-05-31T00:50:34.779Z,473.00
2023-05-31T00:51:34.809Z,473.00
2023-05-31T00:52:34.849Z,471.00
2023-05-31T00:53:34.968Z,474.00
2023-05-31T00:54:34.905Z,475.00
2023-05-31T00:55:34.953Z,475.00
2023-05-31T00:56:34.987Z,477.00
2023-05-31T00:57:34.973Z,477.00
2023-05-31T00:58:35.017Z,478.00
2023-05-31T00:59:35.106Z,479.00
2023-05-31T01:00:35.094Z,479.00
2023-05-31T01:01:35.288Z,480.00
2023-05-31T01:02:35.197Z,482.00
2023-05-31T01:03:35.226Z,482.00
2023-05-31T01:04:35.215Z,481.00
2023-05-31T01:05:35.244Z,479.00
2023-05-31T01:06:35.259Z,477.00
2023-05-31T01:07:35.286Z,475.00
2023-05-31T01:08:35.345Z,475.00
2023-05-31T01:09:35.337Z,474.00
2023-05-31T01:10:35.400Z,473.00
2023-05-31T01:11:35.386Z,472.00
2023-05-31T01:12:35.452Z,473.00
2023-05-31T01:13:35.480Z,474.00
2023-05-31T01:14:35.534Z,473.00
2023-05-31T01:15:35.639Z,472.00
2023-05-31T01:16:35.753Z,471.00
2023-05-31T01:17:35.733Z,472.00
2023-05-31T01:18:35.685Z,474.00
2023-05-31T01:19:35.675Z,475.00
2023-05-31T01:20:35.883Z,475.00
2023-05-31T01:21:35.772Z,474.00
2023-05-31T01:22:35.806Z,473.00
2023-05-31T01:23:37.538Z,474.00
2023-05-31T01:24:35.899Z,475.00
2023-05-31T01:25:36.006Z,474.00
2023-05-31T01:26:35.991Z,476.00
2023-05-31T01:27:36.050Z,475.00
2023-05-31T01:28:36.021Z,478.00
2023-05-31T01:29:36.087Z,479.00
2023-05-31T01:30:36.122Z,481.00
2023-05-31T01:31:36.288Z,480.00
2023-05-31T01:32:36.237Z,478.00
2023-05-31T01:33:36.207Z,474.00
2023-05-31T01:34:36.234Z,473.00
2023-05-31T01:35:36.301Z,471.00
2023-05-31T01:36:36.315Z,469.00
2023-05-31T01:37:36.338Z,469.00
2023-05-31T01:38:36.384Z,469.00
2023-05-31T01:39:36.387Z,469.00
2023-05-31T01:40:36.454Z,467.00
2023-05-31T01:41:36.446Z,467.00
2023-05-31T01:42:36.523Z,470.00
2023-05-31T01:43:36.542Z,471.00
2023-05-31T01:44:36.577Z,470.00
2023-05-31T01:45:36.660Z,467.00
2023-05-31T01:46:36.666Z,465.00
2023-05-31T01:47:36.696Z,465.00
2023-05-31T01:48:36.750Z,466.00
2023-05-31T01:49:36.744Z,468.00
2023-05-31T01:50:36.816Z,469.00
2023-05-31T01:51:36.831Z,470.00
2023-05-31T01:52:36.852Z,468.00
2023-05-31T01:53:36.897Z,469.00
2023-05-31T01:54:36.923Z,469.00
2023-05-31T01:55:36.929Z,468.00
2023-05-31T01:56:36.965Z,467.00
2023-05-31T01:57:36.999Z,469.00
2023-05-31T01:58:37.054Z,468.00
2023-05-31T01:59:37.112Z,467.00
2023-05-31T02:00:37.147Z,468.00
2023-05-31T02:01:37.267Z,466.00
2023-05-31T02:02:37.239Z,465.00
2023-05-31T02:03:37.251Z,466.00
2023-05-31T02:04:37.269Z,466.00
2023-05-31T02:05:37.308Z,466.00
2023-05-31T02:06:37.356Z,466.00
2023-05-31T02:07:37.396Z,467.00
2023-05-31T02:08:37.383Z,469.00
2023-05-31T02:09:37.445Z,469.00
2023-05-31T02:10:37.474Z,469.00
2023-05-31T02:11:37.514Z,468.00
2023-05-31T02:12:37.611Z,469.00
2023-05-31T02:13:37.618Z,468.00
2023-05-31T02:14:37.663Z,470.00
2023-05-31T02:15:37.691Z,468.00
2023-05-31T02:16:37.749Z,466.00
2023-05-31T02:17:37.749Z,467.00
2023-05-31T02:18:37.795Z,468.00
2023-05-31T02:19:37.831Z,470.00
2023-05-31T02:20:37.878Z,470.00
2023-05-31T02:21:37.907Z,470.00
2023-05-31T02:22:37.947Z,471.00
2023-05-31T02:23:37.989Z,471.00
2023-05-31T02:24:38.022Z,470.00
2023-05-31T02:25:38.049Z,469.00
2023-05-31T02:26:38.126Z,468.00
2023-05-31T02:27:38.109Z,466.00
2023-05-31T02:28:38.159Z,467.00
2023-05-31T02:29:38.194Z,468.00
2023-05-31T02:30:38.238Z,467.00
2023-05-31T02:31:38.390Z,466.00
2023-05-31T02:32:38.462Z,466.00
2023-05-31T02:33:38.380Z,466.00
2023-05-31T02:34:38.425Z,467.00
2023-05-31T02:35:38.453Z,469.00
2023-05-31T02:36:38.461Z,469.00
2023-05-31T02:37:38.531Z,467.00
2023-05-31T02:38:38.619Z,469.00
2023-05-31T02:39:38.585Z,469.00
2023-05-31T02:40:38.671Z,469.00
2023-05-31T02:41:38.696Z,468.00
2023-05-31T02:42:38.739Z,468.00
2023-05-31T02:43:38.803Z,472.00
2023-05-31T02:44:38.868Z,473.00
2023-05-31T02:45:38.865Z,474.00
2023-05-31T02:46:38.958Z,474.00
2023-05-31T02:47:39.030Z,473.00
2023-05-31T02:48:39.029Z,472.00
2023-05-31T02:49:39.056Z,472.00
2023-05-31T02:50:39.091Z,472.00
2023-05-31T02:51:39.189Z,474.00
2023-05-31T02:52:39.201Z,475.00
2023-05-31T02:53:39.226Z,474.00
2023-05-31T02:54:39.305Z,473.00
2023-05-31T02:55:39.317Z,473.00
2023-05-31T02:56:39.347Z,472.00
2023-05-31T02:57:39.407Z,474.00
2023-05-31T02:58:39.440Z,474.00
2023-05-31T02:59:39.487Z,474.00
2023-05-31T03:00:39.574Z,474.00
2023-05-31T03:01:39.633Z,474.00
2023-05-31T03:02:39.786Z,472.00
2023-05-31T03:03:39.706Z,471.00
2023-05-31T03:04:39.713Z,473.00
2023-05-31T03:05:39.789Z,475.00
2023-05-31T03:06:39.791Z,474.00
2023-05-31T03:07:39.848Z,472.00
2023-05-31T03:08:39.890Z,471.00
2023-05-31T03:09:39.924Z,471.00
2023-05-31T03:10:39.964Z,469.00
2023-05-31T03:11:40.017Z,468.00
2023-05-31T03:12:40.087Z,469.00
2023-05-31T03:13:40.124Z,471.00
2023-05-31T03:14:40.193Z,470.00
2023-05-31T03:15:40.218Z,468.00
2023-05-31T03:16:40.322Z,468.00
2023-05-31T03:17:40.328Z,469.00
2023-05-31T03:18:40.367Z,468.00
2023-05-31T03:19:40.401Z,469.00
2023-05-31T03:20:40.540Z,470.00
2023-05-31T03:21:40.525Z,469.00
2023-05-31T03:22:40.543Z,469.00
2023-05-31T03:23:40.577Z,468.00
2023-05-31T03:24:40.621Z,466.00
2023-05-31T03:25:40.653Z,465.00
2023-05-31T03:26:40.711Z,466.00
2023-05-31T03:27:40.748Z,468.00
2023-05-31T03:28:40.807Z,470.00
2023-05-31T03:29:40.867Z,470.00
2023-05-31T03:30:40.877Z,470.00
2023-05-31T03:31:40.973Z,470.00
2023-05-31T03:32:41.022Z,468.00
2023-05-31T03:33:41.000Z,466.00
2023-05-31T03:34:41.052Z,464.00
2023-05-31T03:35:41.075Z,464.00
2023-05-31T03:36:41.120Z,466.00
2023-05-31T03:37:41.170Z,467.00
2023-05-31T03:38:41.223Z,466.00
2023-05-31T03:39:41.291Z,468.00
2023-05-31T03:40:41.316Z,468.00
2023-05-31T03:41:41.389Z,467.00
2023-05-31T03:42:41.503Z,467.00
2023-05-31T03:43:41.510Z,466.00
2023-05-31T03:44:41.561Z,468.00
2023-05-31T03:45:41.621Z,469.00
2023-05-31T03:46:41.654Z,469.00
2023-05-31T03:47:41.841Z,468.00
2023-05-31T03:48:41.721Z,468.00
2023-05-31T03:49:41.796Z,465.00
2023-05-31T03:50:41.857Z,465.00
2023-05-31T03:51:41.865Z,465.00
2023-05-31T03:52:41.924Z,465.00
2023-05-31T03:53:41.988Z,466.00
2023-05-31T03:54:42.018Z,465.00
2023-05-31T03:55:42.035Z,466.00
2023-05-31T03:56:42.104Z,466.00
2023-05-31T03:57:42.149Z,465.00
2023-05-31T03:58:42.190Z,466.00
2023-05-31T03:59:42.230Z,462.00
2023-05-31T04:00:42.282Z,461.00
2023-05-31T04:01:42.362Z,461.00
2023-05-31T04:02:52.055Z,461.00
2023-05-31T04:03:43.480Z,463.00
2023-05-31T04:04:42.500Z,464.00
2023-05-31T04:05:42.378Z,465.00
2023-05-31T04:06:42.353Z,464.00
2023-05-31T04:07:42.327Z,467.00
2023-05-31T04:08:42.345Z,468.00
2023-05-31T04:09:42.328Z,467.00
2023-05-31T04:10:42.315Z,468.00
2023-05-31T04:11:42.342Z,467.00
2023-05-31T04:12:42.305Z,467.00
2023-05-31T04:13:42.336Z,467.00
2023-05-31T04:14:42.384Z,467.00
2023-05-31T04:15:42.455Z,467.00
2023-05-31T04:16:42.497Z,466.00
2023-05-31T04:17:42.492Z,467.00
2023-05-31T04:18:42.551Z,468.00
2023-05-31T04:19:42.578Z,467.00
2023-05-31T04:20:42.686Z,467.00
2023-05-31T04:21:42.661Z,468.00
2023-05-31T04:22:42.701Z,468.00
2023-05-31T04:23:42.745Z,466.00
2023-05-31T04:24:42.792Z,469.00
2023-05-31T04:25:42.846Z,469.00
2023-05-31T04:26:42.879Z,470.00
2023-05-31T04:27:42.904Z,471.00
2023-05-31T04:28:43.000Z,471.00
2023-05-31T04:29:43.043Z,472.00
2023-05-31T04:30:43.161Z,472.00
2023-05-31T04:32:44.144Z,474.00
2023-05-31T04:33:43.114Z,473.00
2023-05-31T04:34:43.091Z,472.00
2023-05-31T04:35:43.104Z,474.00
2023-05-31T04:36:43.068Z,473.00
2023-05-31T04:37:43.082Z,473.00
2023-05-31T04:38:43.046Z,474.00
2023-05-31T04:39:43.060Z,473.00
2023-05-31T04:40:43.022Z,468.00
2023-05-31T04:41:43.034Z,467.00
2023-05-31T04:42:43.088Z,466.00
2023-05-31T04:43:43.020Z,467.00
2023-05-31T04:44:43.099Z,468.00
2023-05-31T04:45:43.160Z,469.00
2023-05-31T04:46:43.177Z,474.00
2023-05-31T04:47:43.278Z,477.00
2023-05-31T04:48:43.274Z,478.00
2023-05-31T04:50:43.373Z,476.00
2023-05-31T04:51:43.448Z,475.00
2023-05-31T04:52:43.447Z,478.00
2023-05-31T04:53:43.461Z,482.00
2023-05-31T04:54:43.533Z,486.00
2023-05-31T04:55:43.546Z,493.00
2023-05-31T04:56:43.637Z,501.00
2023-05-31T04:57:43.666Z,504.00
2023-05-31T04:58:43.694Z,506.00
2023-05-31T04:59:43.756Z,508.00
2023-05-31T05:00:43.787Z,509.00
2023-05-31T05:01:44.095Z,510.00
2023-05-31T05:02:43.966Z,513.00
2023-05-31T05:03:44.034Z,514.00
2023-05-31T05:04:43.998Z,515.00
2023-05-31T05:05:44.049Z,520.00
2023-05-31T05:06:44.075Z,525.00
2023-05-31T05:07:44.145Z,523.00
2023-05-31T05:08:44.177Z,521.00
2023-05-31T05:09:44.223Z,522.00
2023-05-31T05:10:44.293Z,523.00
2023-05-31T05:11:44.376Z,523.00
2023-05-31T05:12:44.353Z,523.00
2023-05-31T05:13:44.418Z,524.00
2023-05-31T05:14:44.503Z,524.00
2023-05-31T05:15:44.539Z,523.00
2023-05-31T05:16:44.680Z,524.00
2023-05-31T05:17:44.656Z,520.00
2023-05-31T05:18:44.692Z,518.00
2023-05-31T05:19:44.747Z,517.00
2023-05-31T05:20:44.852Z,516.00
2023-05-31T05:21:44.858Z,513.00
2023-05-31T05:22:44.900Z,513.00
2023-05-31T05:23:44.978Z,511.00
2023-05-31T05:24:44.994Z,509.00
2023-05-31T05:25:45.086Z,510.00
2023-05-31T05:26:45.113Z,510.00
2023-05-31T05:27:45.171Z,508.00
2023-05-31T05:28:45.238Z,507.00
2023-05-31T05:29:45.288Z,508.00
2023-05-31T05:30:45.393Z,509.00
2023-05-31T05:31:45.441Z,512.00
2023-05-31T05:32:45.504Z,511.00
2023-05-31T05:33:45.570Z,508.00
2023-05-31T05:34:45.618Z,510.00
2023-05-31T05:35:45.642Z,511.00
2023-05-31T05:36:45.717Z,511.00
2023-05-31T05:37:45.781Z,509.00
2023-05-31T05:38:45.843Z,509.00
2023-05-31T05:39:46.604Z,511.00
2023-05-31T05:40:46.236Z,512.00
2023-05-31T05:41:46.674Z,511.00
2023-05-31T05:42:46.172Z,511.00
2023-05-31T05:43:46.310Z,512.00
2023-05-31T05:44:46.117Z,515.00
2023-05-31T05:45:46.199Z,516.00
2023-05-31T05:46:46.590Z,518.00
2023-05-31T05:47:46.524Z,532.00
2023-05-31T05:48:46.402Z,555.00
2023-05-31T05:49:46.420Z,557.00
2023-05-31T05:50:46.468Z,557.00
2023-05-31T05:51:46.537Z,559.00
2023-05-31T05:52:46.585Z,565.00
2023-05-31T05:53:46.662Z,566.00
2023-05-31T05:54:46.677Z,566.00
2023-05-31T05:55:46.756Z,562.00
2023-05-31T05:56:46.871Z,561.00
2023-05-31T05:57:46.854Z,563.00
2023-05-31T05:58:46.929Z,574.00
2023-05-31T05:59:46.941Z,597.00
2023-05-31T06:00:47.056Z,661.00
2023-05-31T06:01:47.107Z,699.00
2023-05-31T06:02:47.231Z,719.00
2023-05-31T06:03:47.232Z,755.00
2023-05-31T06:04:47.215Z,781.00
2023-05-31T06:05:47.279Z,804.00
2023-05-31T06:06:47.288Z,823.00
2023-05-31T06:07:47.337Z,845.00
2023-05-31T06:08:47.370Z,863.00
2023-05-31T06:09:47.421Z,877.00
2023-05-31T06:10:47.439Z,903.00
2023-05-31T06:11:47.467Z,923.00
2023-05-31T06:12:47.496Z,928.00
2023-05-31T06:13:47.516Z,930.00
2023-05-31T06:14:47.558Z,937.00
2023-05-31T06:15:47.554Z,951.00
2023-05-31T06:16:47.643Z,967.00
2023-05-31T06:17:47.589Z,980.00
2023-05-31T06:18:47.593Z,989.00
2023-05-31T06:19:47.634Z,993.00
2023-05-31T06:20:47.688Z,994.00
2023-05-31T06:21:48.123Z,990.00
2023-05-31T06:22:48.680Z,989.00
2023-05-31T06:23:47.632Z,991.00
2023-05-31T06:24:47.668Z,997.00
2023-05-31T06:25:47.658Z,1003.00
2023-05-31T06:26:47.688Z,1009.00
2023-05-31T06:27:47.657Z,1008.00
2023-05-31T06:28:47.707Z,1007.00
2023-05-31T06:29:47.674Z,1007.00
2023-05-31T06:30:47.726Z,1010.00
2023-05-31T06:31:47.766Z,1016.00
2023-05-31T06:32:47.729Z,1023.00
2023-05-31T06:33:47.750Z,1026.00
2023-05-31T06:34:47.715Z,1029.00
2023-05-31T06:35:47.704Z,1025.00
2023-05-31T06:36:47.721Z,1020.00
2023-05-31T06:37:47.714Z,1017.00
2023-05-31T06:38:47.730Z,1021.00
2023-05-31T06:39:47.792Z,1028.00
2023-05-31T06:40:47.714Z,1032.00
2023-05-31T06:41:47.733Z,1030.00
2023-05-31T06:42:47.700Z,1030.00
2023-05-31T06:43:47.721Z,1032.00
2023-05-31T06:44:56.205Z,1037.00
2023-05-31T06:45:48.712Z,1046.00
2023-05-31T06:46:47.693Z,1054.00
2023-05-31T06:47:47.726Z,1063.00
2023-05-31T06:48:49.218Z,1062.00
2023-05-31T06:49:48.691Z,1062.00
2023-05-31T06:50:47.670Z,1062.00
2023-05-31T06:51:47.642Z,1069.00
2023-05-31T06:52:47.691Z,1082.00
2023-05-31T06:53:47.642Z,1084.00
2023-05-31T06:54:47.625Z,1053.00
2023-05-31T06:55:47.644Z,1012.00
2023-05-31T06:56:47.622Z,987.00
2023-05-31T06:57:47.619Z,941.00
2023-05-31T06:58:47.584Z,911.00
2023-05-31T06:59:47.569Z,905.00
2023-05-31T07:00:47.869Z,910.00
2023-05-31T07:01:47.648Z,943.00
2023-05-31T07:02:47.623Z,969.00
2023-05-31T07:03:47.659Z,988.00
2023-05-31T07:04:47.557Z,1006.00
2023-05-31T07:05:47.548Z,1009.00
2023-05-31T07:06:47.551Z,1011.00
2023-05-31T07:07:47.546Z,1010.00
2023-05-31T07:08:47.531Z,1011.00
2023-05-31T07:09:47.538Z,1011.00
2023-05-31T07:10:47.543Z,1010.00
2023-05-31T07:11:47.608Z,1006.00
2023-05-31T07:12:47.524Z,1001.00
2023-05-31T07:13:47.513Z,997.00
2023-05-31T07:14:47.535Z,992.00
2023-05-31T07:15:47.630Z,990.00
2023-05-31T07:16:47.643Z,992.00
2023-05-31T07:17:47.713Z,993.00
2023-05-31T07:18:47.700Z,993.00
2023-05-31T07:19:47.733Z,995.00
2023-05-31T07:20:47.871Z,1005.00
2023-05-31T07:21:48.125Z,1023.00
2023-05-31T07:22:47.904Z,1036.00
2023-05-31T07:23:47.918Z,1044.00
2023-05-31T07:24:48.020Z,1046.00
2023-05-31T07:25:48.051Z,1043.00
2023-05-31T07:26:48.123Z,1043.00
2023-05-31T07:27:48.174Z,1045.00
2023-05-31T07:28:48.244Z,1040.00
2023-05-31T07:29:48.257Z,944.00
2023-05-31T07:30:48.275Z,923.00
2023-05-31T07:31:48.264Z,918.00
2023-05-31T07:32:48.372Z,925.00
2023-05-31T07:33:48.304Z,937.00
2023-05-31T07:35:02.744Z,974.00
2023-05-31T07:35:57.634Z,992.00
2023-05-31T07:36:49.275Z,998.00
2023-05-31T07:37:48.317Z,1002.00
2023-05-31T07:38:48.285Z,1009.00
2023-05-31T07:39:48.284Z,1010.00
2023-05-31T07:40:48.258Z,1009.00
2023-05-31T07:41:48.696Z,1003.00
2023-05-31T07:42:48.243Z,994.00
2023-05-31T07:43:48.252Z,985.00
2023-05-31T07:44:48.226Z,979.00
2023-05-31T07:45:48.263Z,971.00
2023-05-31T07:46:48.207Z,960.00
2023-05-31T07:47:48.253Z,914.00
2023-05-31T07:48:48.922Z,894.00
2023-05-31T07:49:48.190Z,817.00
2023-05-31T07:50:48.166Z,842.00
2023-05-31T07:51:48.656Z,910.00
2023-05-31T07:52:48.220Z,917.00
2023-05-31T07:53:48.190Z,939.00
2023-05-31T07:54:48.181Z,1037.00
2023-05-31T07:55:49.254Z,1053.00
2023-05-31T07:56:48.161Z,1071.00
2023-05-31T07:57:48.162Z,1085.00
2023-05-31T07:58:48.122Z,1102.00
2023-05-31T07:59:48.169Z,1159.00
2023-05-31T08:00:48.172Z,1165.00
2023-05-31T08:01:48.184Z,1164.00
2023-05-31T08:02:48.231Z,1161.00
2023-05-31T08:03:48.177Z,1161.00
2023-05-31T08:04:48.214Z,1163.00
2023-05-31T08:05:49.309Z,1171.00
2023-05-31T08:06:48.363Z,1172.00
2023-05-31T08:07:48.388Z,1165.00
2023-05-31T08:08:48.609Z,1160.00
2023-05-31T08:09:48.561Z,1165.00
2023-05-31T08:10:48.603Z,1173.00
2023-05-31T08:11:48.652Z,1181.00
2023-05-31T08:12:48.660Z,1181.00
2023-05-31T08:13:48.729Z,1179.00
2023-05-31T08:14:48.778Z,1174.00
2023-05-31T08:15:48.857Z,1168.00
2023-05-31T08:16:49.214Z,1163.00
2023-05-31T08:17:49.081Z,1161.00
2023-05-31T08:18:49.023Z,1158.00
2023-05-31T08:19:49.084Z,1156.00
2023-05-31T08:20:49.182Z,1156.00
2023-05-31T08:21:49.165Z,1150.00
2023-05-31T08:22:49.218Z,1140.00
2023-05-31T08:23:49.257Z,1134.00
2023-05-31T08:24:49.296Z,1135.00
2023-05-31T08:25:49.358Z,1131.00
2023-05-31T08:26:49.660Z,1128.00
2023-05-31T08:27:49.430Z,1123.00
2023-05-31T08:28:49.429Z,1124.00
2023-05-31T08:29:49.479Z,1128.00
2023-05-31T08:30:49.741Z,1146.00
2023-05-31T08:31:49.680Z,1153.00
2023-05-31T08:32:49.583Z,1153.00
2023-05-31T08:33:49.586Z,1150.00
2023-05-31T08:34:49.649Z,1140.00
2023-05-31T08:35:49.650Z,1064.00
2023-05-31T08:36:49.685Z,1067.00
2023-05-31T08:37:49.707Z,1078.00
2023-05-31T08:38:49.770Z,1087.00
2023-05-31T08:39:49.762Z,1101.00
2023-05-31T08:40:49.796Z,1125.00
2023-05-31T08:41:50.157Z,1131.00
2023-05-31T08:42:49.806Z,1138.00
2023-05-31T08:43:49.805Z,1153.00
2023-05-31T08:44:49.850Z,1074.00
2023-05-31T08:45:49.868Z,964.00
2023-05-31T08:46:49.927Z,963.00
2023-05-31T08:47:49.919Z,963.00
2023-05-31T08:48:49.898Z,952.00
2023-05-31T08:49:49.927Z,932.00
2023-05-31T08:50:51.865Z,919.00
2023-05-31T08:51:50.179Z,902.00
2023-05-31T08:52:49.976Z,882.00
2023-05-31T08:53:49.959Z,842.00
2023-05-31T08:54:49.993Z,833.00
2023-05-31T08:55:49.931Z,818.00
2023-05-31T08:56:50.178Z,805.00
2023-05-31T08:57:49.935Z,795.00
2023-05-31T08:58:49.914Z,779.00
2023-05-31T08:59:49.928Z,768.00
2023-05-31T09:00:49.898Z,754.00
2023-05-31T09:01:49.953Z,738.00
2023-05-31T09:02:49.912Z,727.00
2023-05-31T09:03:49.911Z,715.00
2023-05-31T09:04:49.896Z,705.00
2023-05-31T09:05:49.824Z,691.00
2023-05-31T09:06:49.866Z,678.00
2023-05-31T09:07:49.876Z,668.00
2023-05-31T09:08:49.896Z,661.00
2023-05-31T09:09:49.839Z,654.00
2023-05-31T09:10:49.792Z,647.00
2023-05-31T09:11:49.820Z,641.00
2023-05-31T09:12:49.812Z,628.00
2023-05-31T09:13:49.770Z,619.00
2023-05-31T09:14:49.833Z,615.00
2023-05-31T09:15:49.771Z,611.00
2023-05-31T09:16:49.834Z,603.00
2023-05-31T09:17:49.777Z,597.00
2023-05-31T09:18:49.748Z,593.00
2023-05-31T09:19:49.764Z,585.00
2023-05-31T09:20:49.806Z,573.00
2023-05-31T09:21:49.737Z,557.00
2023-05-31T09:22:49.727Z,554.00
2023-05-31T09:23:49.711Z,552.00
2023-05-31T09:24:49.695Z,549.00
2023-05-31T09:25:49.713Z,547.00
2023-05-31T09:26:49.696Z,545.00
2023-05-31T09:27:49.678Z,544.00
2023-05-31T09:28:49.680Z,543.00
2023-05-31T09:29:49.669Z,539.00
2023-05-31T09:30:49.670Z,537.00
2023-05-31T09:31:49.746Z,534.00
2023-05-31T09:32:49.666Z,532.00
2023-05-31T09:33:49.681Z,530.00
2023-05-31T09:34:49.670Z,527.00
2023-05-31T09:35:49.674Z,523.00
2023-05-31T09:36:49.705Z,525.00
2023-05-31T09:37:49.600Z,521.00
2023-05-31T09:38:49.674Z,520.00
2023-05-31T09:39:49.596Z,517.00
2023-05-31T09:40:49.600Z,515.00
2023-05-31T09:41:49.708Z,510.00
2023-05-31T09:42:49.575Z,510.00
2023-05-31T09:43:49.569Z,511.00
2023-05-31T09:44:50.165Z,506.00
2023-05-31T09:45:49.574Z,505.00
2023-05-31T09:46:49.769Z,503.00
2023-05-31T09:47:49.605Z,500.00
2023-05-31T09:48:49.554Z,498.00
2023-05-31T09:49:49.527Z,496.00
2023-05-31T09:50:49.497Z,494.00
2023-05-31T09:51:49.776Z,493.00
2023-05-31T09:52:49.510Z,492.00
2023-05-31T09:53:49.471Z,489.00
2023-05-31T09:54:49.494Z,488.00
2023-05-31T09:55:49.521Z,488.00
2023-05-31T09:56:49.476Z,487.00
2023-05-31T09:57:49.465Z,487.00
2023-05-31T09:58:49.452Z,485.00
2023-05-31T09:59:49.464Z,481.00
2023-05-31T10:00:49.431Z,480.00
2023-05-31T10:01:49.789Z,479.00
2023-05-31T10:02:49.555Z,477.00
2023-05-31T10:03:49.430Z,479.00
2023-05-31T10:04:49.424Z,480.00
2023-05-31T10:05:49.392Z,481.00
2023-05-31T10:06:49.729Z,480.00
2023-05-31T10:07:49.584Z,478.00
2023-05-31T10:08:49.408Z,477.00
2023-05-31T10:09:49.363Z,477.00
2023-05-31T10:10:49.384Z,476.00
2023-05-31T10:11:49.744Z,475.00
2023-05-31T10:12:49.383Z,477.00
2023-05-31T10:13:49.347Z,476.00
2023-05-31T10:14:49.383Z,475.00
2023-05-31T10:15:49.357Z,475.00
2023-05-31T10:16:49.792Z,473.00
2023-05-31T10:17:49.342Z,470.00
2023-05-31T10:18:49.307Z,469.00
2023-05-31T10:19:49.310Z,467.00
2023-05-31T10:20:49.381Z,466.00
2023-05-31T10:21:49.315Z,465.00
2023-05-31T10:22:49.294Z,466.00
2023-05-31T10:23:49.269Z,469.00
2023-05-31T10:24:49.660Z,468.00
2023-05-31T10:25:50.238Z,467.00
2023-05-31T10:26:49.246Z,466.00
2023-05-31T10:27:49.260Z,468.00
2023-05-31T10:28:49.273Z,465.00
2023-05-31T10:29:49.263Z,465.00
2023-05-31T10:30:49.317Z,464.00
2023-05-31T10:31:49.756Z,465.00
2023-05-31T10:32:49.258Z,463.00
2023-05-31T10:33:49.194Z,461.00
2023-05-31T10:34:49.234Z,460.00
2023-05-31T10:35:49.916Z,460.00
2023-05-31T10:36:49.230Z,458.00
2023-05-31T10:37:49.190Z,457.00
2023-05-31T10:38:49.206Z,457.00
2023-05-31T10:39:49.164Z,455.00
2023-05-31T10:40:49.145Z,455.00
2023-05-31T10:41:49.145Z,455.00
2023-05-31T10:42:49.124Z,458.00
2023-05-31T10:43:49.160Z,458.00
2023-05-31T10:44:49.140Z,460.00
2023-05-31T10:45:49.149Z,472.00
2023-05-31T10:46:49.315Z,552.00
2023-05-31T10:47:49.097Z,539.00
2023-05-31T10:48:49.105Z,540.00
2023-05-31T10:49:49.087Z,570.00
2023-05-31T10:50:49.089Z,598.00
2023-05-31T10:51:49.084Z,662.00
2023-05-31T10:52:49.231Z,686.00
2023-05-31T10:53:49.136Z,709.00
2023-05-31T10:54:49.152Z,711.00
2023-05-31T10:55:49.254Z,637.00
2023-05-31T10:56:49.335Z,711.00
2023-05-31T10:57:49.749Z,694.00
2023-05-31T10:58:49.442Z,675.00
2023-05-31T10:59:49.493Z,692.00
2023-05-31T11:00:49.554Z,751.00
2023-05-31T11:01:49.570Z,760.00
2023-05-31T11:02:49.872Z,771.00
2023-05-31T11:03:49.747Z,785.00
2023-05-31T11:04:49.728Z,803.00
2023-05-31T11:05:49.760Z,811.00
2023-05-31T11:06:49.822Z,821.00
2023-05-31T11:07:50.302Z,849.00
2023-05-31T11:08:49.858Z,870.00
2023-05-31T11:09:49.894Z,867.00
2023-05-31T11:10:49.943Z,866.00
2023-05-31T11:11:49.961Z,882.00
2023-05-31T11:12:50.278Z,906.00
2023-05-31T11:13:50.019Z,917.00
2023-05-31T11:14:50.032Z,928.00
2023-05-31T11:15:50.098Z,930.00
2023-05-31T11:16:50.181Z,920.00
2023-05-31T11:17:50.252Z,917.00
2023-05-31T11:18:50.094Z,902.00
2023-05-31T11:19:50.108Z,905.00
2023-05-31T11:20:50.245Z,915.00
2023-05-31T11:21:50.128Z,906.00
2023-05-31T11:22:50.221Z,881.00
2023-05-31T11:23:50.128Z,896.00
2023-05-31T11:24:50.136Z,915.00
2023-05-31T11:25:50.164Z,936.00
2023-05-31T11:26:50.180Z,944.00
2023-05-31T11:27:50.157Z,947.00
2023-05-31T11:28:50.145Z,944.00
2023-05-31T11:29:50.142Z,933.00
2023-05-31T11:30:50.151Z,924.00
2023-05-31T11:31:50.193Z,920.00
2023-05-31T11:32:50.283Z,917.00
2023-05-31T11:33:58.035Z,936.00
2023-05-31T11:34:51.187Z,951.00
2023-05-31T11:35:50.198Z,988.00
2023-05-31T11:36:50.141Z,1018.00
2023-05-31T11:37:50.283Z,1038.00
2023-05-31T11:38:50.147Z,1042.00
2023-05-31T11:39:50.178Z,1024.00
2023-05-31T11:40:50.160Z,956.00
2023-05-31T11:41:50.095Z,936.00
2023-05-31T11:42:50.269Z,920.00
2023-05-31T11:43:50.128Z,901.00
2023-05-31T11:44:50.049Z,877.00
2023-05-31T11:45:50.057Z,846.00
2023-05-31T11:46:50.091Z,819.00
2023-05-31T11:47:50.371Z,809.00
2023-05-31T11:48:50.053Z,797.00
2023-05-31T11:49:50.057Z,783.00
2023-05-31T11:50:50.036Z,771.00
2023-05-31T11:51:50.029Z,756.00
2023-05-31T11:52:50.238Z,742.00
2023-05-31T11:53:50.014Z,732.00
2023-05-31T11:54:50.379Z,705.00
2023-05-31T11:55:50.005Z,698.00
2023-05-31T11:56:49.987Z,684.00
2023-05-31T11:57:50.235Z,678.00
2023-05-31T11:58:49.981Z,669.00
2023-05-31T11:59:49.974Z,662.00
2023-05-31T12:00:49.954Z,655.00
2023-05-31T12:01:49.971Z,645.00
2023-05-31T12:02:50.109Z,639.00
2023-05-31T12:03:50.125Z,627.00
2023-05-31T12:04:50.208Z,616.00
2023-05-31T12:05:50.100Z,613.00
2023-05-31T12:06:50.146Z,606.00
2023-05-31T12:07:50.296Z,601.00
2023-05-31T12:08:50.217Z,594.00
2023-05-31T12:09:50.270Z,589.00
2023-05-31T12:10:50.268Z,583.00
2023-05-31T12:11:50.319Z,578.00
2023-05-31T12:12:50.770Z,575.00
2023-05-31T12:13:50.417Z,574.00
2023-05-31T12:14:50.444Z,569.00
2023-05-31T12:15:50.500Z,562.00
2023-05-31T12:16:50.507Z,557.00
2023-05-31T12:17:50.988Z,553.00
2023-05-31T12:18:50.545Z,547.00
2023-05-31T12:19:50.615Z,543.00
2023-05-31T12:20:50.858Z,538.00
2023-05-31T12:21:50.712Z,533.00
2023-05-31T12:22:50.737Z,529.00
2023-05-31T12:23:50.777Z,523.00
2023-05-31T12:24:50.808Z,520.00
2023-05-31T12:25:50.918Z,517.00
2023-05-31T12:26:50.904Z,517.00
2023-05-31T12:27:50.941Z,516.00
2023-05-31T12:28:50.976Z,514.00